Time;durP1;ratioP1;P1;durP2;ratioP2;P2;SDS_P1;SDS_P2;PMS_P1;PMS_P2;Temp;Humidity;BMP_temperature;BMP_pressure;BME280_temperature;BME280_humidity;BME280_pressure;Samples;Min_cycle;Max_cycle;Signal;HPM_P1;HPM_P2
2021/05/17 07:03:14;;;;;;;1.00;0.80;;;;;;;;;;12918468;23;20024;-81
2021/05/17 07:13:18;;;;;;;1.65;0.90;;;;;;;;;;12900791;23;20441;-83
2021/05/17 07:18:19;;;;;;;2.22;1.05;;;;;;;;;;12901080;23;19998;-83
2021/05/17 07:23:40;;;;;;;2.88;1.13;;;;;;;;;;12899260;23;20008;-82
2021/05/17 07:28:41;;;;;;;3.30;1.10;;;;;;;;;;12903087;23;20074;-82
2021/05/17 07:33:42;;;;;;;2.95;1.20;;;;;;;;;;12905250;23;20008;-83
2021/05/17 07:38:44;;;;;;;3.20;1.10;;;;;;;;;;12901816;23;20009;-82
2021/05/17 07:43:45;;;;;;;2.78;1.40;;;;;;;;;;12891945;23;20012;-84
2021/05/17 07:54:06;;;;;;;2.83;1.40;;;;;;;;;;12892677;23;20009;-83
2021/05/17 07:59:07;;;;;;;2.60;1.20;;;;;;;;;;12887068;23;20125;-83
2021/05/17 08:04:08;;;;;;;3.08;1.10;;;;;;;;;;12888451;23;20050;-83
2021/05/17 08:09:09;;;;;;;4.60;1.40;;;;;;;;;;12887768;23;20067;-83
2021/05/17 08:14:10;;;;;;;2.65;1.02;;;;;;;;;;12887467;23;20015;-84
2021/05/17 08:19:12;;;;;;;3.75;1.25;;;;;;;;;;12886903;23;20007;-84
2021/05/17 08:24:13;;;;;;;3.72;1.00;;;;;;;;;;12887430;23;20012;-83
2021/05/17 08:29:14;;;;;;;2.33;1.00;;;;;;;;;;12886836;23;20095;-83
2021/05/17 08:34:15;;;;;;;2.85;1.20;;;;;;;;;;12884597;23;20009;-83
2021/05/17 08:39:16;;;;;;;1.95;0.90;;;;;;;;;;12882365;23;20016;-84
2021/05/17 08:44:17;;;;;;;1.73;0.98;;;;;;;;;;12881276;23;20062;-85
2021/05/17 08:55:31;;;;;;;3.55;1.13;;;;;;;;;;12751087;23;20037;-86
2021/05/17 09:00:44;;;;;;;3.08;1.10;;;;;;;;;;12726232;23;20009;-87
2021/05/17 09:06:09;;;;;;;3.03;1.15;;;;;;;;;;12751489;23;20017;-85
2021/05/17 09:11:11;;;;;;;1.35;0.80;;;;;;;;;;12761104;23;20037;-85
2021/05/17 09:16:13;;;;;;;3.80;1.20;;;;;;;;;;12901788;22;20013;-85
2021/05/17 09:21:40;;;;;;;1.67;0.88;;;;;;;;;;12895889;23;20008;-85
2021/05/17 09:26:56;;;;;;;3.55;0.75;;;;;;;;;;12880139;23;20008;-86
2021/05/17 09:32:09;;;;;;;2.07;0.80;;;;;;;;;;12790906;22;20023;-84
2021/05/17 09:37:11;;;;;;;1.67;0.90;;;;;;;;;;12876533;23;20020;-83
2021/05/17 09:42:12;;;;;;;2.63;0.85;;;;;;;;;;12871584;23;20009;-83
2021/05/17 09:47:19;;;;;;;3.47;1.05;;;;;;;;;;12876116;23;20062;-85
2021/05/17 09:52:30;;;;;;;1.75;0.80;;;;;;;;;;12876172;23;20024;-83
2021/05/17 09:57:32;;;;;;;3.35;0.85;;;;;;;;;;12879198;23;20007;-83
2021/05/17 10:02:40;;;;;;;6.90;0.85;;;;;;;;;;12875756;23;20009;-85
2021/05/17 10:07:41;;;;;;;6.53;1.10;;;;;;;;;;12878607;23;20004;-83
2021/05/17 10:12:42;;;;;;;2.15;0.80;;;;;;;;;;12880795;23;20011;-85
2021/05/17 10:17:44;;;;;;;1.80;0.80;;;;;;;;;;12880754;23;20456;-84
2021/05/17 10:22:45;;;;;;;2.33;0.80;;;;;;;;;;12880965;23;20027;-85
2021/05/17 10:27:47;;;;;;;2.35;0.98;;;;;;;;;;12887603;23;20004;-83
2021/05/17 10:32:54;;;;;;;2.35;1.00;;;;;;;;;;12887346;23;20015;-84
2021/05/17 10:38:15;;;;;;;2.95;1.13;;;;;;;;;;12884657;23;20004;-85
2021/05/17 10:43:39;;;;;;;3.08;1.10;;;;;;;;;;12888078;23;20012;-84
2021/05/17 10:48:41;;;;;;;2.20;0.80;;;;;;;;;;12889037;23;20047;-83
2021/05/17 10:53:42;;;;;;;5.32;0.90;;;;;;;;;;12888723;23;20321;-86
2021/05/17 11:04:28;;;;;;;1.98;0.80;;;;;;;;;;12884424;23;20013;-84
2021/05/17 11:09:39;;;;;;;2.30;0.90;;;;;;;;;;12882919;23;20039;-83
2021/05/17 11:15:00;;;;;;;2.00;0.98;;;;;;;;;;12881892;23;20054;-84
2021/05/17 11:20:21;;;;;;;1.45;0.70;;;;;;;;;;12884462;23;20005;-84
2021/05/17 11:25:42;;;;;;;2.97;0.88;;;;;;;;;;12885077;23;20494;-84
2021/05/17 11:30:44;;;;;;;2.80;0.90;;;;;;;;;;12882122;23;20007;-84
2021/05/17 11:36:00;;;;;;;3.88;0.70;;;;;;;;;;12877962;23;20023;-85
2021/05/17 11:41:01;;;;;;;5.15;1.00;;;;;;;;;;12877000;23;20023;-83
2021/05/17 11:46:02;;;;;;;4.38;0.80;;;;;;;;;;12876940;23;20396;-85
2021/05/17 11:51:08;;;;;;;3.28;0.80;;;;;;;;;;12877432;23;20028;-86
2021/05/17 11:56:09;;;;;;;3.70;1.60;;;;;;;;;;12881269;23;20055;-86
2021/05/17 12:01:18;;;;;;;2.70;0.90;;;;;;;;;;12880060;23;20005;-85
2021/05/17 12:06:25;;;;;;;2.97;1.20;;;;;;;;;;12880397;23;20080;-86
2021/05/17 12:11:27;;;;;;;2.22;0.90;;;;;;;;;;12876458;23;20015;-86
2021/05/17 12:16:34;;;;;;;3.53;0.90;;;;;;;;;;12873414;23;20012;-86
2021/05/17 12:21:36;;;;;;;2.20;0.80;;;;;;;;;;12876087;23;20024;-86
2021/05/17 12:26:53;;;;;;;1.88;0.90;;;;;;;;;;12895509;23;20019;-86
2021/05/17 12:32:07;;;;;;;2.10;0.73;;;;;;;;;;12891757;23;20019;-87
2021/05/17 12:37:08;;;;;;;3.92;1.00;;;;;;;;;;12900424;23;20020;-86
2021/05/17 12:42:22;;;;;;;1.23;0.80;;;;;;;;;;12873933;23;20083;-87
2021/05/17 12:47:23;;;;;;;3.45;0.60;;;;;;;;;;12874254;23;19997;-86
2021/05/17 12:52:28;;;;;;;1.60;0.70;;;;;;;;;;12871167;23;20004;-86
2021/05/17 12:57:29;;;;;;;1.90;0.45;;;;;;;;;;12869515;23;20011;-86
2021/05/17 13:02:39;;;;;;;2.40;0.68;;;;;;;;;;12871087;23;20001;-85
2021/05/17 13:07:59;;;;;;;2.78;0.50;;;;;;;;;;12872215;23;20044;-85
2021/05/17 13:13:00;;;;;;;3.75;0.70;;;;;;;;;;12869036;23;20332;-85
2021/05/17 13:18:09;;;;;;;1.20;0.52;;;;;;;;;;12877612;23;20015;-85
2021/05/17 13:23:50;;;;;;;1.23;0.70;;;;;;;;;;12873223;23;20079;-85
2021/05/17 13:34:11;;;;;;;1.45;0.73;;;;;;;;;;12873373;23;20008;-85
2021/05/17 13:39:15;;;;;;;2.20;0.80;;;;;;;;;;12871779;23;20095;-85
2021/05/17 13:44:18;;;;;;;2.42;1.08;;;;;;;;;;12876191;23;20005;-84
2021/05/17 13:49:23;;;;;;;2.60;1.20;;;;;;;;;;12880987;22;20011;-85
2021/05/17 13:54:24;;;;;;;1.90;1.20;;;;;;;;;;12890026;23;20067;-86
2021/05/17 13:59:25;;;;;;;1.60;1.10;;;;;;;;;;12880398;23;20001;-86
2021/05/17 14:04:27;;;;;;;1.40;0.80;;;;;;;;;;12870673;23;20016;-86
2021/05/17 14:09:28;;;;;;;2.33;1.40;;;;;;;;;;12876932;23;20005;-86
2021/05/17 14:14:29;;;;;;;1.80;1.20;;;;;;;;;;12879468;23;20381;-86
2021/05/17 14:19:30;;;;;;;2.75;1.80;;;;;;;;;;12877478;23;20053;-85
2021/05/17 14:24:32;;;;;;;2.40;1.00;;;;;;;;;;12884156;23;20420;-85
2021/05/17 14:29:33;;;;;;;2.17;1.38;;;;;;;;;;12875580;23;20028;-84
2021/05/17 14:34:34;;;;;;;2.38;1.40;;;;;;;;;;12872726;23;20008;-85
2021/05/17 14:39:35;;;;;;;2.90;1.40;;;;;;;;;;12882590;23;20024;-84
2021/05/17 14:44:36;;;;;;;2.00;1.50;;;;;;;;;;12898444;23;20014;-84
2021/05/17 14:49:37;;;;;;;2.80;1.88;;;;;;;;;;12912021;23;20448;-82
2021/05/17 14:54:38;;;;;;;4.63;1.88;;;;;;;;;;12897572;23;20015;-86
2021/05/17 14:59:39;;;;;;;5.68;1.77;;;;;;;;;;12883113;23;20357;-86
2021/05/17 15:04:46;;;;;;;3.58;1.92;;;;;;;;;;12875692;23;20043;-83
2021/05/17 15:09:48;;;;;;;5.32;1.80;;;;;;;;;;12880500;23;20008;-83
2021/05/17 15:14:49;;;;;;;3.35;1.85;;;;;;;;;;12875032;23;20035;-84
2021/05/17 15:19:50;;;;;;;4.55;1.70;;;;;;;;;;12878305;23;20001;-84
2021/05/17 15:25:05;;;;;;;2.90;1.40;;;;;;;;;;12877306;23;20015;-84
2021/05/17 15:30:09;;;;;;;2.63;1.50;;;;;;;;;;12855207;23;20013;-84
2021/05/17 15:35:10;;;;;;;2.03;1.30;;;;;;;;;;12880433;23;20019;-83
2021/05/17 15:40:19;;;;;;;3.08;1.20;;;;;;;;;;12884840;23;20075;-84
2021/05/17 15:45:51;;;;;;;2.00;1.10;;;;;;;;;;12857562;23;20024;-86
2021/05/17 15:51:17;;;;;;;2.60;1.45;;;;;;;;;;12891922;23;20400;-86
2021/05/17 15:56:40;;;;;;;1.20;1.10;;;;;;;;;;12846938;23;20485;-86
